Time;durP1;ratioP1;P1;durP2;ratioP2;P2;SDS_P1;SDS_P2;PMS_P1;PMS_P2;Temp;Humidity;BMP_temperature;BMP_pressure;BME280_temperature;BME280_humidity;BME280_pressure;Samples;Min_cycle;Max_cycle;Signal;HPM_P1;HPM_P2
2022/07/04 00:02:14;;;;;;;22.98;11.25;;;22.30;83.20;;;;;;5021181;28;20560;-59
2022/07/04 00:04:40;;;;;;;16.45;9.20;;;22.20;84.60;;;;;;5022285;28;20554;-59
2022/07/04 00:07:05;;;;;;;22.60;11.65;;;22.20;85.10;;;;;;5010160;28;20184;-61
2022/07/04 00:09:31;;;;;;;20.67;10.93;;;22.00;86.80;;;;;;5023137;28;20192;-61
2022/07/04 00:11:56;;;;;;;13.23;7.35;;;21.90;89.00;;;;;;5020732;28;20274;-60
2022/07/04 00:14:22;;;;;;;15.70;8.27;;;21.90;90.10;;;;;;5022723;28;20230;-61
2022/07/04 00:16:47;;;;;;;23.30;10.77;;;21.90;90.70;;;;;;5016639;28;20211;-58
2022/07/04 00:19:13;;;;;;;65.35;27.15;;;21.80;91.60;;;;;;5021389;28;20872;-60
2022/07/04 00:21:38;;;;;;;12.18;6.57;;;21.80;92.50;;;;;;5012064;28;20661;-59
2022/07/04 00:24:04;;;;;;;70.53;28.40;;;21.70;93.40;;;;;;5022710;28;20245;-60
2022/07/04 00:26:30;;;;;;;22.83;9.68;;;21.50;94.60;;;;;;5013354;28;20194;-60
2022/07/04 00:28:55;;;;;;;16.57;7.30;;;21.40;95.50;;;;;;5026404;28;20199;-61
2022/07/04 00:31:21;;;;;;;19.60;9.03;;;21.30;96.50;;;;;;5026287;28;20203;-59
2022/07/04 00:33:46;;;;;;;25.65;9.55;;;21.30;97.30;;;;;;5027200;28;20194;-60
2022/07/04 00:36:12;;;;;;;19.93;9.37;;;21.20;98.20;;;;;;5009609;28;20622;-60
2022/07/04 00:38:37;;;;;;;21.47;9.57;;;21.20;99.00;;;;;;5027838;28;20187;-59
2022/07/04 00:41:03;;;;;;;25.52;11.20;;;21.10;99.90;;;;;;5013905;28;20290;-60
2022/07/04 00:43:29;;;;;;;23.95;10.23;;;21.00;99.90;;;;;;5027992;28;20210;-61
2022/07/04 00:45:55;;;;;;;20.37;11.27;;;20.80;99.90;;;;;;5015094;28;20704;-60
2022/07/04 00:48:20;;;;;;;19.50;9.43;;;20.70;99.90;;;;;;5027992;28;20211;-60
2022/07/04 00:50:47;;;;;;;22.57;13.73;;;20.60;99.90;;;;;;5019014;28;20269;-61
2022/07/04 00:53:14;;;;;;;25.60;13.57;;;20.60;99.90;;;;;;5028054;28;20205;-60
2022/07/04 00:55:40;;;;;;;18.37;11.30;;;20.70;99.90;;;;;;5013382;28;20239;-60
2022/07/04 00:58:07;;;;;;;24.10;15.93;;;20.60;99.90;;;;;;5024627;28;20196;-59
2022/07/04 01:00:33;;;;;;;79.03;74.10;;;20.60;99.90;;;;;;5013132;28;20655;-60
2022/07/04 01:02:59;;;;;;;239.57;226.80;;;20.60;99.90;;;;;;5017710;28;20200;-59
2022/07/04 01:05:24;;;;;;;13.80;8.67;;;20.60;99.90;;;;;;5014712;28;20567;-59
2022/07/04 01:07:50;;;;;;;20.07;9.33;;;20.60;99.90;;;;;;5027959;28;20198;-59
2022/07/04 01:10:16;;;;;;;23.30;9.10;;;20.50;99.90;;;;;;5014954;28;20708;-60
2022/07/04 01:12:41;;;;;;;20.30;9.17;;;20.50;99.90;;;;;;5027613;28;20286;-59
2022/07/04 01:15:07;;;;;;;26.70;10.47;;;20.50;99.90;;;;;;5020906;28;20385;-58
2022/07/04 01:17:33;;;;;;;20.53;9.40;;;20.50;99.90;;;;;;5019206;28;20192;-59
2022/07/04 01:19:59;;;;;;;25.27;9.57;;;20.40;99.90;;;;;;5025195;28;20208;-59
2022/07/04 01:22:25;;;;;;;17.13;7.60;;;20.30;99.90;;;;;;5027346;28;20257;-59
2022/07/04 01:24:50;;;;;;;46.77;43.20;;;20.20;99.90;;;;;;5018882;28;20741;-58
2022/07/04 01:27:16;;;;;;;14.07;6.67;;;20.10;99.90;;;;;;5019610;28;20223;-59
2022/07/04 01:29:42;;;;;;;20.00;8.53;;;20.10;99.90;;;;;;5020129;28;20757;-60
2022/07/04 01:32:08;;;;;;;14.30;6.53;;;20.10;99.90;;;;;;5022577;28;20188;-59
2022/07/04 01:34:34;;;;;;;19.27;7.93;;;20.10;99.90;;;;;;5024786;28;20291;-59
2022/07/04 01:37:00;;;;;;;21.77;8.63;;;20.00;99.90;;;;;;5018270;28;20318;-59
2022/07/04 01:39:29;;;;;;;19.30;7.97;;;19.90;99.90;;;;;;5025147;28;20207;-59
2022/07/04 01:41:55;;;;;;;20.17;8.97;;;19.90;99.90;;;;;;5019116;28;20226;-60
2022/07/04 01:44:21;;;;;;;21.63;8.77;;;19.80;99.90;;;;;;5025426;28;20198;-59
2022/07/04 01:46:47;;;;;;;20.70;8.70;;;19.70;99.90;;;;;;5020063;28;20669;-59
2022/07/04 01:49:13;;;;;;;50.50;18.10;;;19.60;99.90;;;;;;5022654;28;20226;-60
2022/07/04 01:51:49;;;;;;;12.80;6.27;;;19.60;99.90;;;;;;5013826;28;20194;-59
2022/07/04 01:54:15;;;;;;;59.30;25.83;;;19.50;99.90;;;;;;5022529;28;20725;-59
2022/07/04 01:56:41;;;;;;;19.83;8.37;;;19.50;99.90;;;;;;5017791;28;20242;-60
2022/07/04 01:59:07;;;;;;;50.40;21.87;;;19.50;99.90;;;;;;5024318;28;20203;-60
2022/07/04 02:01:33;;;;;;;12.60;5.93;;;19.30;99.90;;;;;;5015764;28;20719;-60
2022/07/04 02:04:00;;;;;;;14.73;7.03;;;19.30;99.90;;;;;;5024060;28;20194;-59
2022/07/04 02:06:26;;;;;;;16.23;7.67;;;19.20;99.90;;;;;;5015391;28;20282;-59
2022/07/04 02:14:21;;;;;;;16.57;7.90;;;19.10;99.90;;;;;;5013461;28;20213;-64
2022/07/04 02:16:47;;;;;;;20.30;9.47;;;19.10;99.90;;;;;;5026575;28;20214;-64
2022/07/04 02:19:12;;;;;;;56.33;22.57;;;18.90;99.90;;;;;;5023669;28;20221;-65
2022/07/04 02:21:38;;;;;;;16.27;7.50;;;18.80;99.90;;;;;;5020547;28;20661;-64
2022/07/04 02:24:04;;;;;;;53.87;21.87;;;18.80;99.90;;;;;;5024031;28;20209;-62
2022/07/04 02:26:29;;;;;;;16.70;8.13;;;18.80;99.90;;;;;;5017795;28;20190;-64
2022/07/04 02:28:55;;;;;;;18.97;9.77;;;18.70;99.90;;;;;;5025987;28;20715;-63
2022/07/04 02:31:20;;;;;;;15.70;8.73;;;18.80;99.90;;;;;;5006128;28;20669;-63
2022/07/04 02:33:46;;;;;;;18.53;8.90;;;18.70;99.90;;;;;;5009664;28;20208;-63
2022/07/04 02:36:11;;;;;;;22.03;10.80;;;18.70;99.90;;;;;;5025627;28;20218;-63
2022/07/04 02:38:37;;;;;;;14.83;8.43;;;18.60;99.90;;;;;;5021067;28;20208;-62
2022/07/04 02:41:02;;;;;;;20.87;10.33;;;18.60;99.90;;;;;;5025731;28;20192;-63
2022/07/04 02:43:28;;;;;;;21.23;10.53;;;18.50;99.90;;;;;;5011097;28;20250;-63
2022/07/04 02:45:53;;;;;;;21.80;10.90;;;18.60;99.90;;;;;;5026448;28;20205;-63
2022/07/04 02:48:19;;;;;;;28.73;13.37;;;18.60;99.90;;;;;;5010993;28;20255;-64
2022/07/04 02:50:44;;;;;;;23.00;10.90;;;18.60;99.90;;;;;;5025451;28;20204;-65
2022/07/04 02:53:10;;;;;;;26.77;12.17;;;18.40;99.90;;;;;;5014782;28;20208;-64
2022/07/04 02:55:35;;;;;;;18.37;9.77;;;18.30;99.90;;;;;;5025506;28;20639;-64
2022/07/04 02:58:01;;;;;;;21.47;10.33;;;18.20;99.90;;;;;;5013125;28;20679;-63
2022/07/04 03:00:26;;;;;;;22.90;11.73;;;18.10;99.90;;;;;;5025394;28;20195;-63
2022/07/04 03:02:53;;;;;;;28.90;12.67;;;18.10;99.90;;;;;;5023954;28;20198;-63
2022/07/04 03:05:19;;;;;;;21.33;10.67;;;18.10;99.90;;;;;;5022962;28;20195;-64
2022/07/04 03:07:45;;;;;;;23.00;11.60;;;18.20;99.90;;;;;;5014826;28;20254;-64
2022/07/04 03:10:10;;;;;;;24.33;12.73;;;18.20;99.90;;;;;;5024862;28;20201;-64
2022/07/04 03:12:36;;;;;;;24.20;11.73;;;18.10;99.90;;;;;;5023993;28;20209;-63
2022/07/04 03:15:01;;;;;;;20.13;11.17;;;18.10;99.90;;;;;;5024365;28;20255;-63
2022/07/04 03:17:28;;;;;;;125.50;118.37;;;18.10;99.90;;;;;;5023548;28;20210;-64
2022/07/04 03:19:54;;;;;;;17.90;10.10;;;18.10;99.90;;;;;;5009331;28;20244;-64
2022/07/04 03:22:20;;;;;;;21.03;11.63;;;18.30;99.90;;;;;;4983282;28;20594;-63
2022/07/04 03:24:45;;;;;;;16.30;10.13;;;18.40;99.90;;;;;;5021859;28;20184;-62
2022/07/04 03:27:11;;;;;;;16.27;10.27;;;18.30;99.90;;;;;;5023178;28;20723;-63
2022/07/04 03:29:36;;;;;;;14.43;8.63;;;18.20;99.90;;;;;;5025554;28;20655;-65
2022/07/04 03:32:02;;;;;;;16.30;10.03;;;18.20;99.90;;;;;;5020631;28;20209;-63
2022/07/04 03:34:27;;;;;;;12.70;8.97;;;18.30;99.90;;;;;;5010959;28;20174;-63
2022/07/04 03:36:53;;;;;;;60.57;25.03;;;18.30;99.90;;;;;;5023314;28;20573;-63
2022/07/04 03:39:18;;;;;;;17.97;10.87;;;18.30;99.90;;;;;;5013585;28;20207;-64
2022/07/04 03:41:43;;;;;;;56.23;24.57;;;18.30;99.90;;;;;;5016202;28;20210;-63
2022/07/04 03:44:09;;;;;;;22.03;12.00;;;18.30;99.90;;;;;;5018325;28;20601;-61
2022/07/04 03:46:34;;;;;;;21.43;12.37;;;18.30;99.90;;;;;;5022832;28;20202;-64
2022/07/04 03:49:00;;;;;;;17.90;11.27;;;18.20;99.90;;;;;;5022639;28;20245;-63
2022/07/04 03:51:25;;;;;;;16.60;10.83;;;18.30;99.90;;;;;;5025261;28;20242;-63
2022/07/04 03:53:51;;;;;;;19.43;12.30;;;18.20;99.90;;;;;;5013915;28;20247;-63
2022/07/04 03:56:17;;;;;;;17.37;10.73;;;18.30;99.90;;;;;;5024171;28;20732;-62
2022/07/04 03:58:42;;;;;;;18.13;11.20;;;18.20;99.90;;;;;;5011190;28;20241;-63
2022/07/04 04:01:08;;;;;;;14.90;11.10;;;18.20;99.90;;;;;;5024715;28;20286;-62
2022/07/04 04:06:18;;;;;;;16.07;10.57;;;18.10;99.90;;;;;;4997512;28;20700;-63
2022/07/04 04:08:44;;;;;;;13.73;10.57;;;18.10;99.90;;;;;;5020321;28;20210;-63
2022/07/04 04:11:09;;;;;;;18.50;11.77;;;18.00;99.90;;;;;;5028463;28;20660;-64
2022/07/04 04:13:35;;;;;;;18.23;12.80;;;18.00;99.90;;;;;;5017552;28;20209;-64
2022/07/04 04:16:00;;;;;;;20.47;12.10;;;17.90;99.90;;;;;;5028497;28;20212;-64
2022/07/04 04:18:26;;;;;;;16.80;11.33;;;17.90;99.90;;;;;;5013707;28;20206;-65
2022/07/04 04:20:51;;;;;;;17.93;11.70;;;17.90;99.90;;;;;;5028780;28;20197;-64
2022/07/04 04:23:17;;;;;;;14.07;10.67;;;18.00;99.90;;;;;;5017956;28;20529;-65
2022/07/04 04:25:42;;;;;;;14.90;10.30;;;18.10;99.90;;;;;;5028674;28;20240;-65
2022/07/04 04:28:08;;;;;;;17.13;12.27;;;18.10;99.90;;;;;;5017402;28;20211;-64
2022/07/04 04:30:33;;;;;;;13.47;9.07;;;18.20;99.90;;;;;;5028701;28;20536;-64
2022/07/04 04:32:59;;;;;;;17.47;10.77;;;18.20;99.90;;;;;;5016265;28;20938;-65
2022/07/04 04:35:25;;;;;;;14.00;10.37;;;18.20;99.90;;;;;;5023169;28;20288;-64
2022/07/04 04:37:50;;;;;;;11.90;9.87;;;18.20;99.90;;;;;;5026687;28;20287;-64
2022/07/04 04:40:16;;;;;;;15.40;9.10;;;18.30;99.90;;;;;;5027919;28;20224;-64
2022/07/04 04:42:42;;;;;;;14.70;9.67;;;18.30;99.90;;;;;;5018490;28;20792;-65
2022/07/04 04:45:08;;;;;;;13.33;9.63;;;18.30;99.90;;;;;;5027726;28;20190;-63
2022/07/04 04:47:33;;;;;;;16.17;10.30;;;18.20;99.90;;;;;;5019124;28;20697;-65
2022/07/04 04:50:00;;;;;;;14.00;9.23;;;18.40;99.90;;;;;;5022384;28;20212;-65
2022/07/04 04:52:25;;;;;;;15.23;8.97;;;18.30;99.90;;;;;;5020592;28;20204;-64
2022/07/04 04:54:51;;;;;;;12.30;9.10;;;18.40;99.90;;;;;;5020890;28;20197;-64
2022/07/04 04:57:16;;;;;;;15.80;9.50;;;18.60;99.90;;;;;;5018322;28;20250;-64
2022/07/04 04:59:42;;;;;;;11.40;8.60;;;18.60;99.90;;;;;;5012059;28;20339;-64
2022/07/04 05:02:07;;;;;;;14.63;9.13;;;18.70;99.90;;;;;;5021862;28;20218;-65
2022/07/04 05:04:33;;;;;;;9.83;7.97;;;18.80;99.90;;;;;;5017412;28;20201;-65
2022/07/04 05:06:58;;;;;;;29.27;14.93;;;19.10;99.90;;;;;;5023875;28;20247;-63
2022/07/04 05:09:24;;;;;;;11.40;8.33;;;19.20;99.90;;;;;;5022625;28;20197;-64
2022/07/04 05:11:50;;;;;;;25.83;15.00;;;19.40;99.90;;;;;;5024303;28;20711;-64
2022/07/04 05:14:16;;;;;;;11.47;7.70;;;19.50;99.90;;;;;;5012538;28;20678;-64
2022/07/04 05:16:41;;;;;;;14.53;8.07;;;19.40;99.90;;;;;;5024225;28;20210;-65
2022/07/04 05:19:07;;;;;;;11.50;7.53;;;19.20;99.90;;;;;;5013644;28;20225;-64
2022/07/04 05:21:32;;;;;;;11.73;7.93;;;19.20;99.90;;;;;;5027172;28;20686;-64
2022/07/04 05:23:58;;;;;;;8.60;6.10;;;19.10;99.90;;;;;;5006816;28;20200;-64
2022/07/04 05:26:24;;;;;;;10.73;6.77;;;19.10;99.90;;;;;;5026615;28;20195;-63
2022/07/04 05:28:50;;;;;;;10.20;6.93;;;19.10;99.90;;;;;;5016294;28;20735;-65
2022/07/04 05:31:16;;;;;;;7.70;5.70;;;19.10;99.90;;;;;;5025761;28;20196;-65
2022/07/04 05:33:41;;;;;;;8.07;6.23;;;19.10;99.90;;;;;;5024597;28;20639;-65
2022/07/04 05:36:07;;;;;;;10.90;7.27;;;19.00;99.90;;;;;;5023533;28;20215;-64
2022/07/04 05:38:33;;;;;;;7.07;5.63;;;19.10;99.90;;;;;;5023974;28;20205;-65
2022/07/04 05:40:58;;;;;;;8.97;6.23;;;19.10;99.90;;;;;;5026168;28;20765;-65
2022/07/04 05:43:26;;;;;;;11.20;6.83;;;19.20;99.90;;;;;;5014854;28;20571;-65
2022/07/04 05:45:52;;;;;;;15.93;7.03;;;19.10;99.90;;;;;;5026330;28;20206;-64
2022/07/04 05:48:18;;;;;;;10.27;6.50;;;19.20;99.90;;;;;;5010962;28;20216;-64
2022/07/04 05:50:43;;;;;;;10.73;6.43;;;19.40;99.90;;;;;;5026158;28;20286;-63
2022/07/04 05:53:09;;;;;;;9.10;5.23;;;19.40;99.90;;;;;;5011001;28;20556;-64
2022/07/04 05:55:34;;;;;;;10.00;5.50;;;19.40;99.90;;;;;;4990775;28;996116;-63
2022/07/04 05:58:00;;;;;;;10.93;5.93;;;19.30;99.90;;;;;;5015280;28;20200;-65
2022/07/04 06:00:26;;;;;;;10.50;5.37;;;19.30;99.90;;;;;;5022243;28;20238;-65
2022/07/04 06:02:51;;;;;;;9.30;5.17;;;19.20;99.90;;;;;;5016339;28;20199;-62
2022/07/04 06:05:17;;;;;;;10.70;5.60;;;19.20;99.90;;;;;;5026159;28;20959;-64
2022/07/04 06:07:43;;;;;;;10.27;5.67;;;19.30;99.90;;;;;;5024872;28;20218;-63
2022/07/04 06:10:09;;;;;;;7.27;4.50;;;19.30;99.90;;;;;;5027024;28;20249;-68
2022/07/04 06:12:34;;;;;;;8.30;4.77;;;19.40;99.90;;;;;;5013995;28;20213;-64
2022/07/04 06:15:00;;;;;;;6.37;4.20;;;19.60;99.90;;;;;;5013906;28;20235;-64
2022/07/04 06:17:26;;;;;;;7.27;4.27;;;19.70;99.90;;;;;;5024599;28;20195;-63
2022/07/04 06:19:51;;;;;;;9.70;4.63;;;19.70;99.90;;;;;;5010318;28;20181;-63
2022/07/04 06:22:17;;;;;;;6.43;3.30;;;19.80;99.90;;;;;;5024655;28;20657;-65
2022/07/04 06:24:42;;;;;;;9.27;4.70;;;19.80;99.90;;;;;;5010698;28;20187;-65
2022/07/04 06:27:08;;;;;;;10.00;4.73;;;19.90;99.90;;;;;;5024380;28;20234;-63
2022/07/04 06:29:33;;;;;;;6.73;3.90;;;20.00;99.90;;;;;;5008831;28;20239;-63
2022/07/04 06:31:59;;;;;;;17.17;7.40;;;20.20;99.90;;;;;;5021282;28;20614;-64
2022/07/04 06:37:08;;;;;;;8.00;4.33;;;20.30;99.90;;;;;;5019646;28;20231;-81
2022/07/04 06:39:34;;;;;;;11.40;5.10;;;20.30;99.90;;;;;;5020740;28;20179;-64
2022/07/04 06:41:59;;;;;;;10.83;3.80;;;20.20;99.90;;;;;;5021656;28;20202;-65
2022/07/04 06:44:25;;;;;;;7.50;3.50;;;20.30;99.90;;;;;;5017893;28;20214;-62
2022/07/04 06:46:50;;;;;;;25.07;12.00;;;20.30;99.90;;;;;;5022014;28;20233;-64
2022/07/04 06:49:16;;;;;;;6.20;3.70;;;20.40;99.90;;;;;;5018485;28;20805;-64
2022/07/04 06:51:42;;;;;;;9.70;5.57;;;20.40;99.90;;;;;;5024005;28;20230;-63
2022/07/04 06:54:07;;;;;;;7.33;3.83;;;20.50;99.90;;;;;;5009171;28;20189;-64
2022/07/04 06:56:33;;;;;;;4.83;2.97;;;20.40;99.90;;;;;;5025394;28;21087;-64
2022/07/04 06:58:59;;;;;;;9.17;4.97;;;20.40;99.90;;;;;;5010458;28;20674;-64
2022/07/04 07:01:24;;;;;;;6.53;3.77;;;20.50;99.90;;;;;;5025315;28;20203;-66
2022/07/04 07:03:50;;;;;;;8.87;4.20;;;20.50;99.90;;;;;;5023423;28;20698;-64
2022/07/04 07:06:16;;;;;;;7.83;3.53;;;20.40;99.90;;;;;;5024505;28;20210;-63
2022/07/04 07:08:42;;;;;;;8.00;3.73;;;20.40;99.90;;;;;;5021042;28;20250;-64
2022/07/04 07:11:13;;;;;;;9.30;3.73;;;20.40;99.90;;;;;;5024911;28;20246;-63
2022/07/04 07:13:44;;;;;;;6.83;3.20;;;20.40;99.90;;;;;;5008429;28;20700;-81
2022/07/04 07:16:10;;;;;;;8.50;4.17;;;20.50;99.90;;;;;;4998903;28;20583;-63
2022/07/04 07:18:36;;;;;;;6.87;3.77;;;20.60;99.90;;;;;;5008273;28;20283;-62
2022/07/04 07:21:01;;;;;;;6.47;2.93;;;20.80;99.90;;;;;;5023687;28;20360;-62
2022/07/04 07:23:27;;;;;;;8.37;4.13;;;21.00;99.90;;;;;;5018053;28;20207;-65
2022/07/04 07:25:52;;;;;;;6.83;4.07;;;21.40;99.90;;;;;;5024324;28;20240;-64
2022/07/04 07:28:18;;;;;;;7.67;4.17;;;21.50;99.90;;;;;;5013666;28;20205;-63
2022/07/04 07:30:44;;;;;;;8.83;4.63;;;21.00;99.90;;;;;;5025083;28;20199;-64
2022/07/04 07:33:10;;;;;;;7.67;3.97;;;20.90;99.90;;;;;;5011131;28;20211;-64
2022/07/04 07:35:36;;;;;;;8.57;4.23;;;20.90;99.90;;;;;;5022325;28;20720;-64
2022/07/04 07:38:02;;;;;;;9.87;3.27;;;21.10;99.90;;;;;;5012982;28;20204;-64
2022/07/04 07:40:27;;;;;;;8.13;3.60;;;21.20;99.90;;;;;;5025611;28;20211;-63
2022/07/04 07:42:54;;;;;;;8.67;3.03;;;21.10;99.90;;;;;;5013827;28;20663;-63
2022/07/04 07:45:20;;;;;;;6.20;3.07;;;21.00;99.90;;;;;;5025521;28;20244;-63
2022/07/04 07:47:46;;;;;;;5.07;2.93;;;21.20;99.90;;;;;;5014725;28;20219;-63
2022/07/04 07:50:12;;;;;;;5.47;2.93;;;21.60;99.90;;;;;;5011329;28;20218;-64
2022/07/04 07:52:37;;;;;;;7.80;3.57;;;21.60;99.90;;;;;;5013350;28;20219;-63
2022/07/04 07:55:03;;;;;;;7.30;3.53;;;21.60;99.50;;;;;;5020185;28;20518;-63
2022/07/04 07:57:29;;;;;;;5.20;3.00;;;21.50;99.50;;;;;;5021488;28;20756;-63
2022/07/04 07:59:55;;;;;;;8.27;4.20;;;21.60;99.90;;;;;;5023869;28;20198;-62
2022/07/04 08:04:33;;;;;;;6.00;3.37;;;21.80;99.50;;;;;;5022738;28;20207;-64
2022/07/04 08:05:07;;;;;;;6.60;3.50;;;21.80;98.80;;;;;;5014522;28;20725;-65
2022/07/04 08:07:33;;;;;;;4.93;3.03;;;21.60;98.90;;;;;;5013860;28;20205;-64
2022/07/04 08:09:58;;;;;;;6.93;2.97;;;21.40;99.10;;;;;;5024508;28;20202;-63
2022/07/04 08:12:24;;;;;;;6.13;3.20;;;20.90;99.20;;;;;;5023127;28;20214;-64
2022/07/04 08:14:49;;;;;;;5.97;3.20;;;21.00;99.60;;;;;;5024975;28;20183;-63
2022/07/04 08:17:15;;;;;;;9.13;3.30;;;21.20;99.40;;;;;;5022199;28;20744;-63
2022/07/04 08:19:40;;;;;;;4.65;2.58;;;21.30;98.90;;;;;;5011107;28;20183;-61
2022/07/04 08:22:06;;;;;;;7.40;3.87;;;21.40;98.90;;;;;;5021915;28;20196;-62
2022/07/04 08:24:31;;;;;;;8.43;4.03;;;21.70;98.40;;;;;;5011054;28;20188;-62
2022/07/04 08:26:57;;;;;;;7.17;3.43;;;21.80;98.30;;;;;;5017431;28;20206;-62
2022/07/04 08:29:22;;;;;;;10.17;4.60;;;21.90;98.10;;;;;;5017252;28;20246;-63
2022/07/04 08:31:48;;;;;;;5.67;2.80;;;21.80;98.20;;;;;;5019452;28;20207;-63
2022/07/04 08:34:13;;;;;;;7.27;3.70;;;21.80;98.40;;;;;;5018320;28;20191;-64
2022/07/04 08:36:39;;;;;;;18.98;10.23;;;21.60;98.70;;;;;;5020442;28;20571;-64
2022/07/04 08:39:05;;;;;;;8.00;3.90;;;21.50;98.70;;;;;;5006823;28;20554;-69
2022/07/04 08:41:39;;;;;;;14.45;8.68;;;21.80;98.20;;;;;;5021994;28;20203;-63
2022/07/04 08:44:10;;;;;;;6.87;3.30;;;22.10;97.70;;;;;;5017657;28;20191;-62
2022/07/04 08:46:39;;;;;;;22.10;10.50;;;21.90;98.20;;;;;;5021290;28;20199;-63
2022/07/04 08:49:20;;;;;;;7.73;4.00;;;22.10;98.10;;;;;;5026228;28;20298;-62
2022/07/04 08:52:00;;;;;;;6.68;3.97;;;22.10;97.70;;;;;;5007240;28;20187;-62
2022/07/04 08:59:58;;;;;;;7.63;3.67;;;21.50;99.10;;;;;;5012077;28;20613;-63
2022/07/04 09:02:26;;;;;;;3.93;2.33;;;21.50;99.30;;;;;;5017974;28;20228;-63
2022/07/04 09:04:52;;;;;;;7.95;3.53;;;21.60;99.10;;;;;;5027503;28;20223;-64
2022/07/04 09:07:18;;;;;;;5.83;3.47;;;21.60;98.30;;;;;;5019216;28;20247;-64
2022/07/04 09:09:44;;;;;;;6.47;3.83;;;21.70;98.20;;;;;;5019823;28;20213;-63
2022/07/04 09:12:11;;;;;;;8.23;4.13;;;22.10;97.50;;;;;;5023088;28;20191;-64
2022/07/04 09:14:38;;;;;;;3.67;2.87;;;22.40;95.70;;;;;;5021885;28;20246;-64
2022/07/04 09:17:04;;;;;;;5.90;3.13;;;22.50;95.50;;;;;;5019992;28;20208;-62
2022/07/04 09:19:30;;;;;;;4.18;2.97;;;22.40;96.30;;;;;;5027343;28;20559;-62
2022/07/04 09:21:56;;;;;;;4.75;3.03;;;22.70;95.70;;;;;;5022213;28;20603;-64
2022/07/04 09:24:44;;;;;;;8.50;4.00;;;22.90;95.70;;;;;;5020980;28;20211;-64
2022/07/04 09:27:10;;;;;;;5.27;3.67;;;23.10;94.40;;;;;;5014522;28;20262;-64
2022/07/04 09:29:53;;;;;;;10.17;3.40;;;22.80;94.90;;;;;;5008024;28;20650;-64
2022/07/04 09:32:36;;;;;;;5.75;3.15;;;22.70;94.60;;;;;;5003848;28;20457;-64
2022/07/04 09:35:03;;;;;;;7.87;3.77;;;22.90;94.60;;;;;;5006513;28;20207;-64
2022/07/04 09:37:45;;;;;;;6.63;3.83;;;22.90;93.80;;;;;;5008263;28;20690;-66
2022/07/04 09:40:21;;;;;;;4.13;2.72;;;22.80;93.60;;;;;;5010054;28;20278;-64
2022/07/04 09:42:47;;;;;;;6.40;3.65;;;22.60;93.80;;;;;;5005093;28;20196;-63
2022/07/04 09:45:12;;;;;;;4.10;2.97;;;22.60;94.60;;;;;;5007952;28;20187;-62
2022/07/04 09:47:40;;;;;;;3.33;2.92;;;22.70;94.90;;;;;;5007297;28;20219;-63
2022/07/04 09:50:14;;;;;;;6.63;3.30;;;23.00;92.30;;;;;;5008410;28;20208;-63
2022/07/04 09:52:57;;;;;;;6.95;2.60;;;23.10;91.60;;;;;;5003919;28;20226;-62
2022/07/04 09:55:30;;;;;;;6.77;3.53;;;23.20;91.50;;;;;;5008985;28;20781;-63
2022/07/04 09:57:58;;;;;;;3.17;2.58;;;23.50;91.50;;;;;;5005874;28;20736;-63
2022/07/04 10:00:28;;;;;;;5.53;3.72;;;23.80;90.60;;;;;;5007442;28;20675;-62
2022/07/04 10:02:55;;;;;;;12.65;6.45;;;24.00;90.10;;;;;;5005646;28;20200;-63
2022/07/04 10:05:26;;;;;;;6.72;3.78;;;24.00;87.50;;;;;;5009388;28;20202;-62
2022/07/04 10:07:54;;;;;;;7.07;4.03;;;24.20;85.20;;;;;;5004621;28;20283;-64
2022/07/04 10:10:28;;;;;;;6.40;3.55;;;24.20;83.10;;;;;;5021527;28;20192;-61
2022/07/04 10:12:56;;;;;;;5.30;2.97;;;23.60;83.10;;;;;;5002330;28;20199;-63
2022/07/04 10:15:21;;;;;;;9.17;3.87;;;23.30;84.00;;;;;;5010178;28;20215;-64
2022/07/04 10:17:47;;;;;;;7.40;3.70;;;23.10;84.20;;;;;;5012995;28;20273;-63
2022/07/04 10:20:14;;;;;;;7.63;4.65;;;22.80;84.60;;;;;;5026187;28;20191;-63
2022/07/04 10:22:40;;;;;;;4.70;3.45;;;22.90;85.80;;;;;;5014569;28;20294;-63
2022/07/04 10:25:08;;;;;;;8.25;3.53;;;23.60;85.10;;;;;;5026218;28;20711;-63
2022/07/04 10:27:34;;;;;;;8.27;4.07;;;23.60;84.90;;;;;;5022674;28;20540;-64
2022/07/04 10:30:03;;;;;;;11.45;4.10;;;24.00;85.20;;;;;;5025625;28;20249;-62
2022/07/04 10:32:29;;;;;;;8.30;3.85;;;24.30;82.80;;;;;;5015701;28;20207;-63
2022/07/04 10:34:55;;;;;;;6.30;3.58;;;24.40;80.90;;;;;;5026216;28;20183;-62
2022/07/04 10:37:21;;;;;;;6.40;3.25;;;24.10;80.60;;;;;;5016603;28;20713;-65
2022/07/04 10:39:47;;;;;;;7.35;3.75;;;23.40;82.70;;;;;;5008311;28;20200;-63
2022/07/04 10:42:25;;;;;;;5.70;3.25;;;23.60;82.10;;;;;;5008172;28;20205;-63
2022/07/04 10:44:51;;;;;;;6.65;3.08;;;23.90;82.30;;;;;;5006826;28;20668;-63
2022/07/04 10:47:27;;;;;;;8.70;3.45;;;23.90;80.50;;;;;;5004799;28;20285;-63
2022/07/04 10:49:52;;;;;;;7.05;3.70;;;24.00;81.40;;;;;;5008112;28;20258;-62
2022/07/04 10:52:18;;;;;;;5.13;2.55;;;24.10;81.60;;;;;;5006548;28;20597;-63
2022/07/04 10:54:44;;;;;;;5.85;3.47;;;24.30;81.80;;;;;;5008489;28;20272;-63
2022/07/04 10:57:24;;;;;;;5.60;3.70;;;24.30;81.90;;;;;;5006618;28;20774;-63
2022/07/04 10:59:52;;;;;;;5.72;3.33;;;24.50;80.00;;;;;;5005524;28;20213;-63
2022/07/04 11:02:17;;;;;;;5.85;3.20;;;24.50;81.20;;;;;;5008115;28;20263;-63
2022/07/04 11:04:50;;;;;;;5.35;3.10;;;24.50;79.90;;;;;;5006212;28;20177;-62
2022/07/04 11:07:16;;;;;;;8.75;3.30;;;24.10;80.60;;;;;;5024427;28;20243;-74
2022/07/04 11:09:45;;;;;;;6.85;3.90;;;24.60;80.70;;;;;;5009464;28;20803;-66
2022/07/04 11:12:14;;;;;;;5.72;3.30;;;26.20;77.20;;;;;;5017116;28;20202;-65
2022/07/04 11:14:43;;;;;;;4.78;2.83;;;26.70;73.80;;;;;;5020772;28;20650;-66
2022/07/04 11:17:19;;;;;;;5.05;3.15;;;27.30;72.20;;;;;;5017644;28;20226;-66
2022/07/04 11:19:45;;;;;;;6.60;3.05;;;27.80;70.20;;;;;;5025699;28;20197;-66
2022/07/04 11:22:11;;;;;;;7.07;3.83;;;27.80;67.00;;;;;;5013075;28;20257;-66
2022/07/04 11:24:39;;;;;;;5.05;3.92;;;28.00;66.10;;;;;;5012398;28;20572;-65
2022/07/04 11:27:08;;;;;;;6.63;2.90;;;28.80;66.00;;;;;;5018320;28;20216;-66
2022/07/04 11:29:34;;;;;;;4.80;2.70;;;27.70;64.10;;;;;;5016707;28;20195;-66
2022/07/04 11:32:00;;;;;;;4.28;3.03;;;26.80;65.60;;;;;;5022704;28;20196;-65
2022/07/04 11:34:31;;;;;;;5.63;3.65;;;26.00;67.80;;;;;;5016948;28;20200;-66
2022/07/04 11:36:58;;;;;;;5.43;2.63;;;25.60;70.00;;;;;;5006056;28;20277;-65
2022/07/04 11:39:23;;;;;;;5.32;3.03;;;26.50;69.10;;;;;;5012906;28;20222;-66
2022/07/04 11:47:31;;;;;;;11.15;7.70;;;28.30;61.20;;;;;;5008131;28;20801;-66
2022/07/04 11:49:58;;;;;;;4.68;3.45;;;28.20;60.70;;;;;;5018591;28;20241;-66
2022/07/04 11:52:25;;;;;;;10.38;7.03;;;27.40;61.80;;;;;;5022267;28;20199;-66
2022/07/04 11:54:51;;;;;;;4.90;2.92;;;27.20;62.70;;;;;;5005988;28;20335;-66
2022/07/04 11:57:26;;;;;;;7.25;3.67;;;26.70;62.60;;;;;;5023365;28;20233;-65
2022/07/04 12:00:09;;;;;;;3.17;2.70;;;26.30;64.10;;;;;;5010928;28;20277;-66
2022/07/04 12:02:35;;;;;;;12.13;5.50;;;26.90;62.50;;;;;;5009529;28;20663;-66
2022/07/04 12:05:03;;;;;;;5.20;2.83;;;27.20;62.90;;;;;;5015285;28;20192;-66
2022/07/04 12:07:32;;;;;;;12.85;8.00;;;29.10;60.10;;;;;;5021628;28;20357;-65
2022/07/04 12:10:08;;;;;;;2.47;2.08;;;29.90;55.60;;;;;;5018978;28;20184;-66
2022/07/04 12:12:34;;;;;;;19.50;9.50;;;29.50;53.30;;;;;;5015181;28;20242;-66
2022/07/04 12:15:04;;;;;;;5.35;3.10;;;29.40;53.40;;;;;;5009099;28;20180;-66
2022/07/04 12:17:33;;;;;;;12.25;8.07;;;30.10;53.80;;;;;;5022968;28;20206;-67
2022/07/04 12:20:02;;;;;;;8.52;3.88;;;31.10;53.90;;;;;;5008588;28;20643;-66
2022/07/04 12:22:33;;;;;;;11.60;7.93;;;32.70;51.20;;;;;;5021167;28;20569;-66
2022/07/04 12:25:00;;;;;;;7.45;3.35;;;32.90;48.80;;;;;;5021535;28;20258;-66
2022/07/04 12:27:26;;;;;;;19.10;10.57;;;31.40;48.50;;;;;;5018971;28;20293;-66
2022/07/04 12:29:54;;;;;;;4.47;2.80;;;31.00;49.10;;;;;;5016807;28;20187;-66
2022/07/04 12:32:19;;;;;;;16.58;7.57;;;30.80;49.50;;;;;;5025925;28;20199;-68
2022/07/04 12:34:46;;;;;;;5.03;2.53;;;32.00;46.60;;;;;;5016547;28;20257;-66
2022/07/04 12:37:13;;;;;;;7.80;4.07;;;32.80;45.80;;;;;;5028771;28;20262;-67
2022/07/04 12:39:41;;;;;;;5.68;2.80;;;33.60;44.00;;;;;;5017891;28;20865;-68
2022/07/04 12:42:14;;;;;;;5.43;3.17;;;33.50;43.60;;;;;;5028597;28;20214;-66
2022/07/04 12:44:41;;;;;;;5.13;2.85;;;34.60;42.20;;;;;;5006757;28;20196;-66
2022/07/04 12:47:08;;;;;;;7.55;3.63;;;33.40;40.10;;;;;;5025727;28;20191;-67
2022/07/04 12:49:34;;;;;;;7.95;4.95;;;32.50;41.30;;;;;;5026165;28;20207;-66
2022/07/04 12:52:10;;;;;;;7.63;3.97;;;31.60;43.20;;;;;;5028115;28;20721;-68
2022/07/04 12:54:38;;;;;;;8.93;4.50;;;32.40;42.80;;;;;;5016278;28;20211;-67
2022/07/04 12:57:15;;;;;;;4.38;2.80;;;31.00;42.70;;;;;;5028156;28;20591;-68
2022/07/04 12:59:42;;;;;;;7.60;3.55;;;31.60;42.80;;;;;;5016095;28;20647;-67